Time;durP1;ratioP1;P1;durP2;ratioP2;P2;SDS_P1;SDS_P2;PMS_P1;PMS_P2;Temp;Humidity;BMP_temperature;BMP_pressure;BME280_temperature;BME280_humidity;BME280_pressure;Samples;Min_cycle;Max_cycle;Signal;HPM_P1;HPM_P2
2022/07/21 00:01:54;;;;;;;;;;;;;;;22.68;57.91;100172.59;5023053;28;19940;-59
2022/07/21 00:04:41;;;;;;;;;;;;;;;22.68;57.98;100175.22;5054559;28;20271;-59
2022/07/21 00:07:34;;;;;;;;;;;;;;;22.70;57.84;100174.25;5054309;28;19928;-59
2022/07/21 00:10:19;;;;;;;;;;;;;;;22.70;57.73;100178.69;5039219;28;20378;-59
2022/07/21 00:13:03;;;;;;;;;;;;;;;22.67;57.83;100171.72;5054507;28;19924;-59
2022/07/21 00:15:52;;;;;;;;;;;;;;;22.66;57.89;100164.69;5039210;28;20022;-59
2022/07/21 00:18:44;;;;;;;;;;;;;;;22.63;57.89;100167.47;5039095;28;19923;-58
2022/07/21 00:21:29;;;;;;;;;;;;;;;22.61;58.11;100164.00;5039201;28;19924;-59
2022/07/21 00:24:15;;;;;;;;;;;;;;;22.61;58.03;100161.38;5054182;28;20065;-60
2022/07/21 00:27:05;;;;;;;;;;;;;;;22.60;57.98;100167.56;5039264;28;20015;-60
2022/07/21 00:29:55;;;;;;;;;;;;;;;22.58;57.93;100167.59;5038974;28;19979;-61
2022/07/21 00:32:42;;;;;;;;;;;;;;;22.56;58.09;100168.56;5039351;28;20328;-59
2022/07/21 00:35:29;;;;;;;;;;;;;;;22.55;58.04;100172.09;5039290;28;19971;-59
2022/07/21 00:38:13;;;;;;;;;;;;;;;22.54;58.17;100162.47;5039023;28;20413;-58
2022/07/21 00:40:59;;;;;;;;;;;;;;;22.53;58.28;100172.16;5054032;28;20432;-59
2022/07/21 00:43:49;;;;;;;;;;;;;;;22.47;58.53;100167.06;5053630;28;19924;-60
2022/07/21 00:46:33;;;;;;;;;;;;;;;22.48;58.27;100166.16;5038965;28;20387;-60
2022/07/21 00:49:21;;;;;;;;;;;;;;;22.50;58.37;100173.09;5053722;28;19927;-58
2022/07/21 00:52:05;;;;;;;;;;;;;;;22.50;58.40;100178.38;5038754;28;19966;-58
2022/07/21 00:54:51;;;;;;;;;;;;;;;22.51;58.40;100171.34;5038653;28;20467;-59
2022/07/21 00:57:36;;;;;;;;;;;;;;;22.50;58.34;100173.09;5053535;28;19923;-59
2022/07/21 01:00:25;;;;;;;;;;;;;;;22.51;58.30;100166.06;5053315;28;19939;-58
2022/07/21 01:03:09;;;;;;;;;;;;;;;22.50;58.52;100169.63;5056412;28;20417;-59
2022/07/21 01:05:53;;;;;;;;;;;;;;;22.49;58.57;100174.06;5042903;28;20379;-59
2022/07/21 01:08:37;;;;;;;;;;;;;;;22.50;58.82;100173.09;5042865;28;19931;-59
2022/07/21 01:11:26;;;;;;;;;;;;;;;22.50;58.60;100173.09;5057507;28;19923;-59
2022/07/21 01:14:11;;;;;;;;;;;;;;;22.47;58.66;100167.06;5042503;28;20024;-58
2022/07/21 01:16:57;;;;;;;;;;;;;;;22.47;58.65;100172.34;5057851;28;19939;-60
2022/07/21 01:19:47;;;;;;;;;;;;;;;22.46;58.88;100165.34;5057726;28;19943;-59
2022/07/21 01:22:33;;;;;;;;;;;;;;;22.46;58.66;100168.88;5042402;28;19943;-60
2022/07/21 01:25:21;;;;;;;;;;;;;;;22.44;58.83;100170.69;5057527;28;19955;-60
2022/07/21 01:28:05;;;;;;;;;;;;;;;22.41;58.83;100167.25;5042407;28;19942;-60
2022/07/21 01:30:55;;;;;;;;;;;;;;;22.42;58.92;100161.94;5042076;28;20394;-60
2022/07/21 01:33:41;;;;;;;;;;;;;;;22.38;58.81;100160.28;5042556;28;19959;-59
2022/07/21 01:36:28;;;;;;;;;;;;;;;22.38;59.08;100160.28;5042386;28;20395;-58
2022/07/21 01:42:21;;;;;;;;;;;;;;;22.36;58.83;100151.53;5057228;28;19946;-59
2022/07/21 01:45:05;;;;;;;;;;;;;;;22.38;58.82;100162.06;5042112;28;19927;-59
2022/07/21 01:47:55;;;;;;;;;;;;;;;22.38;59.05;100162.06;5057045;28;19943;-60
2022/07/21 01:50:41;;;;;;;;;;;;;;;22.37;58.99;100163.81;5041689;28;19940;-59
2022/07/21 01:53:31;;;;;;;;;;;;;;;22.37;58.89;100158.53;5057020;28;19943;-60
2022/07/21 01:56:23;;;;;;;;;;;;;;;22.38;59.03;100165.56;5041960;28;19928;-60
2022/07/21 01:59:07;;;;;;;;;;;;;;;22.35;59.01;100171.81;5041514;28;19971;-60
2022/07/21 02:01:56;;;;;;;;;;;;;;;22.33;59.00;100170.97;5056720;28;19924;-59
2022/07/21 02:04:43;;;;;;;;;;;;;;;22.30;59.13;100171.06;5056455;28;19954;-59
2022/07/21 02:07:27;;;;;;;;;;;;;;;22.30;59.29;100167.56;5056472;28;19971;-58
2022/07/21 02:10:14;;;;;;;;;;;;;;;22.29;59.31;100171.13;5056477;28;20439;-59
2022/07/21 02:13:02;;;;;;;;;;;;;;;22.31;59.22;100166.66;5056116;28;20275;-59
2022/07/21 02:15:46;;;;;;;;;;;;;;;22.28;59.27;100167.59;5041683;28;20011;-58
2022/07/21 02:18:37;;;;;;;;;;;;;;;22.26;59.42;100166.81;5056584;28;20322;-59
2022/07/21 02:21:30;;;;;;;;;;;;;;;22.27;59.32;100165.88;5041459;28;20284;-59
2022/07/21 02:24:14;;;;;;;;;;;;;;;22.24;59.30;100166.00;5041467;28;19923;-60
2022/07/21 02:27:01;;;;;;;;;;;;;;;22.23;59.36;100168.66;5041240;28;19924;-60
2022/07/21 02:29:48;;;;;;;;;;;;;;;22.21;59.44;100164.28;5041228;28;19983;-60
2022/07/21 02:32:35;;;;;;;;;;;;;;;22.20;59.44;100165.19;5056242;28;20272;-60
2022/07/21 02:35:19;;;;;;;;;;;;;;;22.22;59.39;100167.81;5056282;28;19923;-59
2022/07/21 02:38:06;;;;;;;;;;;;;;;22.20;59.48;100169.63;5041253;28;20069;-58
2022/07/21 02:40:54;;;;;;;;;;;;;;;22.18;59.42;100172.31;5041193;28;19970;-58
2022/07/21 02:43:38;;;;;;;;;;;;;;;22.17;59.55;100173.25;5040904;28;19924;-59
2022/07/21 02:46:24;;;;;;;;;;;;;;;22.18;59.55;100174.09;5055770;28;19959;-59
2022/07/21 02:49:13;;;;;;;;;;;;;;;22.16;59.65;100168.88;5055488;28;20003;-59
2022/07/21 02:51:58;;;;;;;;;;;;;;;22.17;59.50;100165.31;5040882;28;19923;-59
2022/07/21 02:54:44;;;;;;;;;;;;;;;22.17;59.73;100164.44;5055787;28;20455;-59
2022/07/21 02:57:33;;;;;;;;;;;;;;;22.17;59.74;100167.97;5055931;28;19970;-60
2022/07/21 03:00:20;;;;;;;;;;;;;;;22.17;59.66;100167.06;5040439;28;20016;-61
2022/07/21 03:03:10;;;;;;;;;;;;;;;22.17;59.66;100170.59;5055119;28;19970;-60
2022/07/21 03:05:59;;;;;;;;;;;;;;;22.15;59.88;100171.53;5040262;28;19923;-60
2022/07/21 03:08:48;;;;;;;;;;;;;;;22.15;59.82;100161.84;5040513;28;19962;-59
2022/07/21 03:11:32;;;;;;;;;;;;;;;22.14;59.73;100162.75;5040384;28;19924;-58
2022/07/21 03:14:16;;;;;;;;;;;;;;;22.10;59.97;100158.47;5055495;28;20373;-58
2022/07/21 03:17:08;;;;;;;;;;;;;;;22.12;59.84;100161.94;5055473;28;19924;-58
2022/07/21 03:19:58;;;;;;;;;;;;;;;22.10;59.97;100160.28;5040441;28;19959;-59
2022/07/21 03:22:42;;;;;;;;;;;;;;;22.11;59.96;100162.00;5039486;28;19924;-59
2022/07/21 03:25:28;;;;;;;;;;;;;;;22.11;59.95;100160.22;5055288;28;20009;-59
2022/07/21 03:28:18;;;;;;;;;;;;;;;22.09;60.05;100147.97;5055353;28;19962;-59
2022/07/21 03:31:05;;;;;;;;;;;;;;;22.08;60.12;100149.75;5039858;28;19924;-59
2022/07/21 03:33:52;;;;;;;;;;;;;;;22.07;60.13;100142.75;5054823;28;19924;-59
2022/07/21 03:36:38;;;;;;;;;;;;;;;22.08;60.00;100143.63;5040116;28;19970;-59
2022/07/21 03:39:25;;;;;;;;;;;;;;;22.09;60.06;100155.91;5039799;28;19923;-58
2022/07/21 03:42:09;;;;;;;;;;;;;;;22.06;60.08;100156.84;5054937;28;20379;-59
2022/07/21 03:45:01;;;;;;;;;;;;;;;22.04;60.47;100154.25;5054762;28;19924;-59
2022/07/21 03:47:51;;;;;;;;;;;;;;;22.06;59.97;100164.75;5039904;28;19927;-60
2022/07/21 03:50:36;;;;;;;;;;;;;;;22.04;60.25;100167.44;5039517;28;20435;-59
2022/07/21 03:53:25;;;;;;;;;;;;;;;22.04;60.10;100164.81;5054401;28;19923;-59
2022/07/21 03:56:15;;;;;;;;;;;;;;;22.04;60.21;100162.16;5039874;28;20276;-59
2022/07/21 03:59:02;;;;;;;;;;;;;;;22.03;60.29;100165.72;5039608;28;19923;-58
2022/07/21 04:01:49;;;;;;;;;;;;;;;22.00;60.50;100164.94;5039079;28;19923;-59
2022/07/21 04:04:35;;;;;;;;;;;;;;;22.00;60.38;100155.25;5054319;28;19924;-59
2022/07/21 04:07:22;;;;;;;;;;;;;;;21.99;60.31;100148.25;5054578;28;20354;-59
2022/07/21 04:10:10;;;;;;;;;;;;;;;21.97;60.35;100139.50;5039501;28;19965;-60
2022/07/21 04:12:59;;;;;;;;;;;;;;;21.99;60.26;100139.47;5039506;28;20399;-59
2022/07/21 04:15:46;;;;;;;;;;;;;;;21.97;60.32;100144.78;5039229;28;19923;-61
2022/07/21 04:18:33;;;;;;;;;;;;;;;21.95;60.48;100148.38;5054013;28;19924;-59
2022/07/21 04:21:19;;;;;;;;;;;;;;;21.94;60.46;100144.00;5039263;28;19955;-59
2022/07/21 04:24:06;;;;;;;;;;;;;;;21.94;60.45;100144.91;5039204;28;19938;-59
2022/07/21 04:26:50;;;;;;;;;;;;;;;21.92;60.52;100151.09;5054190;28;19962;-59
2022/07/21 04:29:37;;;;;;;;;;;;;;;21.90;60.52;100152.00;5054239;28;19939;-58
2022/07/21 04:32:24;;;;;;;;;;;;;;;21.89;60.59;100152.06;5053926;28;19939;-59
2022/07/21 04:35:13;;;;;;;;;;;;;;;21.88;60.62;100151.19;5039351;28;19922;-59
2022/07/21 04:38:03;;;;;;;;;;;;;;;21.88;60.63;100151.19;5038754;28;19939;-59
2022/07/21 04:40:50;;;;;;;;;;;;;;;21.87;60.60;100148.59;5039092;28;19924;-60
2022/07/21 04:43:34;;;;;;;;;;;;;;;21.86;60.77;100152.16;5038716;28;19924;-58
2022/07/21 04:46:20;;;;;;;;;;;;;;;21.85;60.72;100158.34;5053671;28;19924;-60
2022/07/21 04:49:11;;;;;;;;;;;;;;;21.86;60.70;100157.44;5038953;28;19967;-59
2022/07/21 04:52:01;;;;;;;;;;;;;;;21.87;60.82;100159.16;5038861;28;20422;-58
2022/07/21 04:54:47;;;;;;;;;;;;;;;21.86;60.79;100154.78;5038062;28;20051;-59
2022/07/21 04:57:31;;;;;;;;;;;;;;;21.86;60.89;100157.44;5053977;28;20118;-60
2022/07/21 05:00:24;;;;;;;;;;;;;;;21.85;60.92;100167.13;5053834;28;20059;-60
2022/07/21 05:03:15;;;;;;;;;;;;;;;21.84;60.96;100165.41;5038375;28;20292;-60
2022/07/21 05:05:59;;;;;;;;;;;;;;;21.85;61.03;100171.53;5038750;28;20348;-59
2022/07/21 05:08:48;;;;;;;;;;;;;;;21.87;61.21;100169.72;5053751;28;19970;-59
2022/07/21 05:11:32;;;;;;;;;;;;;;;21.86;60.84;100163.59;5038443;28;19970;-59
2022/07/21 05:14:20;;;;;;;;;;;;;;;21.87;60.97;100173.22;5038489;28;19971;-59
2022/07/21 05:17:04;;;;;;;;;;;;;;;21.84;61.05;100169.78;5038734;28;19923;-60
2022/07/21 05:19:51;;;;;;;;;;;;;;;21.83;61.24;100182.13;5053245;28;19924;-60
2022/07/21 05:22:37;;;;;;;;;;;;;;;21.79;61.21;100172.56;5053433;28;19970;-60
2022/07/21 05:25:23;;;;;;;;;;;;;;;21.78;61.20;100170.00;5038714;28;19924;-59
2022/07/21 05:28:08;;;;;;;;;;;;;;;21.79;61.16;100171.72;5053664;28;20015;-59
2022/07/21 05:30:57;;;;;;;;;;;;;;;21.80;61.12;100163.75;5053273;28;20023;-59
2022/07/21 05:33:44;;;;;;;;;;;;;;;21.80;61.17;100158.47;5038638;28;19924;-59
2022/07/21 05:36:28;;;;;;;;;;;;;;;21.79;61.21;100162.03;5053174;28;20459;-58
2022/07/21 05:39:12;;;;;;;;;;;;;;;21.80;61.18;100171.66;5053305;28;19923;-58
2022/07/21 05:41:56;;;;;;;;;;;;;;;21.80;61.22;100158.47;5053215;28;19951;-60
2022/07/21 05:44:45;;;;;;;;;;;;;;;21.79;61.22;100164.66;5053335;28;20415;-60
2022/07/21 05:47:32;;;;;;;;;;;;;;;21.77;61.34;100169.09;5038525;28;20391;-60
2022/07/21 05:50:16;;;;;;;;;;;;;;;21.81;61.24;100167.25;5055824;28;19966;-60
2022/07/21 05:53:02;;;;;;;;;;;;;;;21.77;61.39;100173.53;5056774;28;19924;-59
2022/07/21 05:55:47;;;;;;;;;;;;;;;21.74;61.25;100175.34;5041986;28;19923;-59
2022/07/21 05:58:32;;;;;;;;;;;;;;;21.74;61.40;100177.09;5041772;28;20374;-59
2022/07/21 06:01:17;;;;;;;;;;;;;;;21.73;61.40;100170.09;5056790;28;19939;-59
2022/07/21 06:04:00;;;;;;;;;;;;;;;21.73;61.51;100173.63;5041909;28;19924;-59
2022/07/21 06:06:52;;;;;;;;;;;;;;;21.69;61.42;100176.38;5056389;28;19923;-60
2022/07/21 06:09:38;;;;;;;;;;;;;;;21.67;61.56;100173.78;5040605;28;20449;-60
2022/07/21 06:12:25;;;;;;;;;;;;;;;21.67;61.37;100179.06;5042052;28;19924;-59
2022/07/21 06:15:09;;;;;;;;;;;;;;;21.66;61.45;100189.66;5041319;28;19924;-60
2022/07/21 06:17:55;;;;;;;;;;;;;;;21.68;61.47;100195.75;5056279;28;20283;-60
2022/07/21 06:20:40;;;;;;;;;;;;;;;21.68;61.55;100207.16;5056434;28;19963;-60
2022/07/21 06:23:24;;;;;;;;;;;;;;;21.66;61.52;100202.84;5056154;28;19923;-60
2022/07/21 06:26:08;;;;;;;;;;;;;;;21.66;61.50;100216.88;5056141;28;20263;-59
2022/07/21 06:28:52;;;;;;;;;;;;;;;21.66;61.62;100206.31;5056062;28;19923;-59
2022/07/21 06:31:36;;;;;;;;;;;;;;;21.67;61.63;100205.41;5040890;28;19990;-60
2022/07/21 06:34:29;;;;;;;;;;;;;;;21.65;61.71;100215.16;5041103;28;19931;-60
2022/07/21 06:37:13;;;;;;;;;;;;;;;21.65;61.72;100216.94;5041296;28;19983;-60
2022/07/21 06:39:59;;;;;;;;;;;;;;;21.65;61.55;100219.56;5056192;28;19924;-60
2022/07/21 06:42:51;;;;;;;;;;;;;;;21.66;61.80;100223.94;5040742;28;19923;-60
2022/07/21 06:45:38;;;;;;;;;;;;;;;21.66;61.63;100223.94;5056130;28;19924;-60
2022/07/21 06:48:22;;;;;;;;;;;;;;;21.66;61.75;100221.31;5056074;28;20383;-62
2022/07/21 06:51:09;;;;;;;;;;;;;;;21.63;61.68;100221.38;5040702;28;20398;-60
2022/07/21 06:53:53;;;;;;;;;;;;;;;21.60;61.84;100223.19;5055553;28;19970;-60
2022/07/21 06:56:37;;;;;;;;;;;;;;;21.59;61.80;100218.78;5055618;28;19928;-60
2022/07/21 06:59:26;;;;;;;;;;;;;;;21.55;61.73;100222.44;5055410;28;19924;-60
2022/07/21 07:02:16;;;;;;;;;;;;;;;21.57;61.72;100227.66;5055095;28;20399;-60
2022/07/21 07:05:03;;;;;;;;;;;;;;;21.56;61.72;100228.56;5040701;28;19991;-60
2022/07/21 07:07:48;;;;;;;;;;;;;;;21.57;61.73;100233.78;5040843;28;20011;-60
2022/07/21 07:10:34;;;;;;;;;;;;;;;21.58;61.76;100230.22;5055419;28;20390;-60
2022/07/21 07:13:19;;;;;;;;;;;;;;;21.58;61.76;100237.28;5055600;28;19923;-61
2022/07/21 07:16:03;;;;;;;;;;;;;;;21.55;61.81;100232.97;5040480;28;20439;-60
2022/07/21 07:18:47;;;;;;;;;;;;;;;21.54;61.78;100238.28;5054987;28;19924;-60
2022/07/21 07:21:33;;;;;;;;;;;;;;;21.53;61.82;100231.28;5040052;28;19923;-59
2022/07/21 07:24:22;;;;;;;;;;;;;;;21.56;61.80;100242.63;5055200;28;19970;-59
2022/07/21 07:27:07;;;;;;;;;;;;;;;21.56;61.84;100237.34;5040231;28;20332;-60
2022/07/21 07:29:53;;;;;;;;;;;;;;;21.56;61.79;100236.47;5054985;28;20030;-60
2022/07/21 07:32:40;;;;;;;;;;;;;;;21.57;61.84;100246.09;5039730;28;19923;-60
2022/07/21 07:35:27;;;;;;;;;;;;;;;21.57;61.77;100240.84;5040222;28;20390;-60
2022/07/21 07:38:14;;;;;;;;;;;;;;;21.59;61.78;100233.75;5054893;28;19923;-60
2022/07/21 07:41:01;;;;;;;;;;;;;;;21.55;61.80;100238.25;5054383;28;20383;-59
2022/07/21 07:43:46;;;;;;;;;;;;;;;21.56;61.72;100234.72;5054747;28;19926;-60
2022/07/21 07:46:30;;;;;;;;;;;;;;;21.54;61.67;100227.72;5054945;28;19970;-59
2022/07/21 07:49:17;;;;;;;;;;;;;;;21.55;61.75;100237.38;5054225;28;19956;-59
2022/07/21 07:52:05;;;;;;;;;;;;;;;21.53;61.77;100236.53;5039802;28;19923;-60
2022/07/21 07:54:54;;;;;;;;;;;;;;;21.51;61.95;100235.72;5039712;28;19930;-59
2022/07/21 07:57:40;;;;;;;;;;;;;;;21.48;61.98;100243.72;5039192;28;19924;-59
2022/07/21 08:00:26;;;;;;;;;;;;;;;21.48;62.04;100252.50;5054316;28;20007;-59
2022/07/21 08:03:10;;;;;;;;;;;;;;;21.49;62.15;100248.09;5039054;28;19923;-60
2022/07/21 08:06:03;;;;;;;;;;;;;;;21.48;62.17;100236.66;5054911;28;19923;-60
2022/07/21 08:08:47;;;;;;;;;;;;;;;21.50;62.17;100244.53;5039248;28;19923;-60
2022/07/21 08:11:36;;;;;;;;;;;;;;;21.52;62.17;100250.63;5053425;28;19962;-59
2022/07/21 08:14:23;;;;;;;;;;;;;;;21.49;62.24;100243.69;5039245;28;19928;-59
2022/07/21 08:17:12;;;;;;;;;;;;;;;21.51;62.35;100240.97;5054368;28;19943;-59
2022/07/21 08:19:59;;;;;;;;;;;;;;;21.51;62.49;100246.25;5039241;28;19924;-58
2022/07/21 08:22:43;;;;;;;;;;;;;;;21.48;62.38;100246.38;5039028;28;19969;-59
2022/07/21 08:25:33;;;;;;;;;;;;;;;21.49;62.40;100248.09;5053956;28;20330;-59
2022/07/21 08:28:22;;;;;;;;;;;;;;;21.49;62.38;100242.81;5038815;28;20008;-60
2022/07/21 08:31:09;;;;;;;;;;;;;;;21.47;62.63;100240.22;5038932;28;20283;-59
2022/07/21 08:33:54;;;;;;;;;;;;;;;21.45;62.70;100242.91;5039346;28;19925;-60
2022/07/21 08:36:38;;;;;;;;;;;;;;;21.47;62.64;100242.84;5054110;28;20058;-60
2022/07/21 08:39:25;;;;;;;;;;;;;;;21.47;62.70;100255.19;5038810;28;19931;-60
2022/07/21 08:42:16;;;;;;;;;;;;;;;21.47;62.82;100244.63;5038937;28;19943;-59
2022/07/21 08:45:06;;;;;;;;;;;;;;;21.48;62.73;100257.75;5039067;28;20415;-60
2022/07/21 08:47:56;;;;;;;;;;;;;;;21.44;62.80;100251.72;5038789;28;19941;-60
2022/07/21 08:50:46;;;;;;;;;;;;;;;21.45;62.78;100256.06;5038439;28;19923;-59
2022/07/21 08:53:30;;;;;;;;;;;;;;;21.46;62.93;100256.94;5038981;28;19994;-60
2022/07/21 08:56:19;;;;;;;;;;;;;;;21.43;62.75;100264.91;5053864;28;19971;-59
2022/07/21 08:59:06;;;;;;;;;;;;;;;21.43;62.93;100262.28;5038938;28;19923;-59
2022/07/21 09:01:52;;;;;;;;;;;;;;;21.42;62.99;100257.91;5038459;28;19923;-60
2022/07/21 09:04:37;;;;;;;;;;;;;;;21.39;63.14;100264.13;5039020;28;19924;-58
2022/07/21 09:07:22;;;;;;;;;;;;;;;21.41;63.15;100272.03;5053826;28;19924;-58
2022/07/21 09:10:08;;;;;;;;;;;;;;;21.41;63.13;100274.66;5053493;28;19970;-58
2022/07/21 09:13:13;;;;;;;;;;;;;;;21.39;63.44;100269.41;5053624;28;19927;-59
2022/07/21 09:15:59;;;;;;;;;;;;;;;21.39;63.14;100266.75;5038193;28;19924;-60
2022/07/21 09:18:53;;;;;;;;;;;;;;;21.39;63.27;100279.09;5053762;28;19939;-61
2022/07/21 09:21:43;;;;;;;;;;;;;;;21.37;63.37;100273.00;5038253;28;20275;-58
2022/07/21 09:24:31;;;;;;;;;;;;;;;21.37;63.52;100273.84;5042054;28;19924;-60
2022/07/21 09:27:23;;;;;;;;;;;;;;;21.35;63.58;100269.53;5042420;28;19923;-60
2022/07/21 09:30:12;;;;;;;;;;;;;;;21.34;63.69;100278.34;5057058;28;19970;-58
2022/07/21 09:33:03;;;;;;;;;;;;;;;21.34;63.62;100278.34;5041978;28;19928;-58
2022/07/21 09:35:57;;;;;;;;;;;;;;;21.33;63.57;100276.59;5042319;28;19940;-58
2022/07/21 09:38:46;;;;;;;;;;;;;;;21.31;63.70;100271.38;5041369;28;20287;-59
2022/07/21 09:41:36;;;;;;;;;;;;;;;21.30;64.00;100269.66;5042198;28;19967;-58
2022/07/21 09:44:33;;;;;;;;;;;;;;;21.32;63.77;100274.88;5041979;28;19970;-59
2022/07/21 09:47:18;;;;;;;;;;;;;;;21.34;63.79;100278.34;5041814;28;20381;-59
2022/07/21 09:50:08;;;;;;;;;;;;;;;21.33;63.78;100272.22;5057071;28;20407;-58
2022/07/21 09:52:53;;;;;;;;;;;;;;;21.34;63.92;100273.06;5041643;28;19961;-59
2022/07/21 09:55:44;;;;;;;;;;;;;;;21.33;63.84;100277.50;5056648;28;19950;-59
2022/07/21 09:58:28;;;;;;;;;;;;;;;21.33;63.97;100277.50;5041900;28;19962;-58
2022/07/21 10:01:17;;;;;;;;;;;;;;;21.33;63.96;100277.50;5056782;28;19924;-59
2022/07/21 10:04:03;;;;;;;;;;;;;;;21.32;64.03;100280.13;5017053;28;19924;-59
2022/07/21 10:06:50;;;;;;;;;;;;;;;21.30;64.31;100283.69;5017205;28;19940;-61
2022/07/21 10:09:40;;;;;;;;;;;;;;;21.30;63.99;100283.69;5015895;28;20431;-60
2022/07/21 10:12:30;;;;;;;;;;;;;;;21.31;64.08;100284.56;5016884;28;19959;-58
2022/07/21 10:15:17;;;;;;;;;;;;;;;21.29;64.26;100287.22;5015771;28;19944;-59
2022/07/21 10:18:04;;;;;;;;;;;;;;;21.29;64.48;100284.56;5016541;28;19972;-60
2022/07/21 10:20:57;;;;;;;;;;;;;;;21.27;64.30;100286.38;5015786;28;19926;-59
2022/07/21 10:23:42;;;;;;;;;;;;;;;21.29;64.32;100283.72;5015812;28;19925;-59
2022/07/21 10:26:26;;;;;;;;;;;;;;;21.29;64.41;100289.00;5017081;28;20336;-60
2022/07/21 10:29:12;;;;;;;;;;;;;;;21.27;64.49;100289.00;5016407;28;19963;-61
2022/07/21 10:32:10;;;;;;;;;;;;;;;21.27;64.54;100281.13;5015690;28;19928;-59
2022/07/21 10:34:55;;;;;;;;;;;;;;;21.27;64.64;100291.66;5015050;28;20432;-59
2022/07/21 10:37:42;;;;;;;;;;;;;;;21.28;64.55;100292.53;5015755;28;19924;-58
2022/07/21 10:40:32;;;;;;;;;;;;;;;21.28;64.63;100287.25;5016518;28;19936;-59
2022/07/21 10:43:19;;;;;;;;;;;;;;;21.28;64.67;100288.13;5015404;28;19952;-58
2022/07/21 10:46:03;;;;;;;;;;;;;;;21.28;64.82;100297.81;5015409;28;19943;-59
2022/07/21 10:48:49;;;;;;;;;;;;;;;21.29;64.76;100294.28;5015389;28;19932;-61
2022/07/21 10:51:40;;;;;;;;;;;;;;;21.29;64.73;100292.50;5015689;28;20278;-59
2022/07/21 10:54:26;;;;;;;;;;;;;;;21.30;64.70;100294.22;5015250;28;19924;-60
2022/07/21 10:57:31;;;;;;;;;;;;;;;21.31;64.86;100287.19;5015193;28;19924;-59
2022/07/21 11:00:18;;;;;;;;;;;;;;;21.32;64.89;100298.59;5015244;28;19923;-58
2022/07/21 11:03:07;;;;;;;;;;;;;;;21.32;64.98;100301.22;5044912;28;20006;-59
2022/07/21 11:06:06;;;;;;;;;;;;;;;21.33;64.83;100300.31;5040472;28;19931;-59
2022/07/21 11:08:52;;;;;;;;;;;;;;;21.33;64.91;100289.78;5055682;28;19977;-58
2022/07/21 11:11:59;;;;;;;;;;;;;;;21.32;64.93;100298.59;5040262;28;19928;-59
2022/07/21 11:14:46;;;;;;;;;;;;;;;21.33;64.98;100297.69;5055404;28;19923;-59
2022/07/21 11:17:32;;;;;;;;;;;;;;;21.32;64.95;100299.47;5055184;28;20402;-58
2022/07/21 11:20:19;;;;;;;;;;;;;;;21.31;65.04;100297.75;5040398;28;19928;-59
2022/07/21 11:23:06;;;;;;;;;;;;;;;21.30;65.19;100296.00;5054888;28;19924;-58
2022/07/21 11:25:50;;;;;;;;;;;;;;;21.27;65.19;100302.19;5055010;28;19924;-58
2022/07/21 11:28:39;;;;;;;;;;;;;;;21.28;65.09;100298.66;5055332;28;20042;-59
2022/07/21 11:31:24;;;;;;;;;;;;;;;21.29;65.21;100296.91;5039736;28;20008;-58
2022/07/21 11:34:10;;;;;;;;;;;;;;;21.27;65.43;100301.34;5040096;28;19946;-60
2022/07/21 11:36:59;;;;;;;;;;;;;;;21.27;65.57;100301.34;5040052;28;19923;-60
2022/07/21 11:39:45;;;;;;;;;;;;;;;21.29;65.27;100304.81;5055026;28;19924;-60
2022/07/21 11:42:35;;;;;;;;;;;;;;;21.28;65.64;100300.44;5054936;28;19924;-60
2022/07/21 11:45:25;;;;;;;;;;;;;;;21.26;65.84;100305.72;5039884;28;19998;-59
2022/07/21 11:48:15;;;;;;;;;;;;;;;21.26;65.71;100303.09;5039209;28;19923;-59
2022/07/21 11:51:06;;;;;;;;;;;;;;;21.29;65.46;100294.28;5039577;28;19923;-59
2022/07/21 11:53:50;;;;;;;;;;;;;;;21.30;65.59;100311.81;5039849;28;19923;-61
2022/07/21 11:56:41;;;;;;;;;;;;;;;21.30;65.64;100296.84;5054594;28;20398;-58
2022/07/21 11:59:25;;;;;;;;;;;;;;;21.28;65.69;100306.56;5039582;28;20003;-59
2022/07/21 12:02:14;;;;;;;;;;;;;;;21.30;65.68;100311.81;5054042;28;19963;-58
2022/07/21 12:05:01;;;;;;;;;;;;;;;21.28;65.70;100316.25;5039639;28;20378;-59
2022/07/21 12:07:51;;;;;;;;;;;;;;;21.29;65.88;100320.63;5054580;28;19923;-59
2022/07/21 12:10:38;;;;;;;;;;;;;;;21.28;65.84;100324.16;5039105;28;19970;-59
2022/07/21 12:13:22;;;;;;;;;;;;;;;21.22;65.88;100325.19;5039366;28;19939;-59
2022/07/21 12:16:08;;;;;;;;;;;;;;;21.20;65.83;100324.34;5054240;28;19924;-58
2022/07/21 12:19:12;;;;;;;;;;;;;;;21.15;66.05;100331.47;5038852;28;19923;-58
2022/07/21 12:21:59;;;;;;;;;;;;;;;21.16;65.78;100327.94;5054238;28;20018;-58
2022/07/21 12:24:53;;;;;;;;;;;;;;;21.16;65.91;100327.94;5039288;28;20042;-59
2022/07/21 12:27:43;;;;;;;;;;;;;;;21.17;65.59;100332.31;5038598;28;19924;-60
2022/07/21 12:30:56;;;;;;;;;;;;;;;21.19;65.90;100340.19;5053823;28;19974;-58
2022/07/21 12:33:48;;;;;;;;;;;;;;;21.17;65.98;100347.28;5033750;28;20024;-58
2022/07/21 12:36:40;;;;;;;;;;;;;;;21.17;65.79;100348.13;5038869;28;19947;-59
2022/07/21 12:42:38;;;;;;;;;;;;;;;21.13;66.01;100351.72;5054019;28;19940;-59
2022/07/21 12:45:24;;;;;;;;;;;;;;;21.12;65.74;100356.16;5039053;28;19955;-59
2022/07/21 12:48:13;;;;;;;;;;;;;;;21.07;65.80;100362.44;5039261;28;19970;-59
2022/07/21 12:51:03;;;;;;;;;;;;;;;21.05;66.08;100361.59;5038711;28;20397;-60
2022/07/21 12:53:54;;;;;;;;;;;;;;;21.06;66.00;100358.91;5038891;28;20283;-59
2022/07/21 12:56:43;;;;;;;;;;;;;;;21.06;65.96;100360.69;5038720;28;20038;-60
2022/07/21 12:59:30;;;;;;;;;;;;;;;21.09;65.80;100363.25;5042729;28;19951;-60
2022/07/21 13:02:14;;;;;;;;;;;;;;;21.05;66.06;100365.06;5042720;28;19962;-60
2022/07/21 13:05:00;;;;;;;;;;;;;;;21.05;66.06;100383.53;5057391;28;20054;-60
2022/07/21 13:07:49;;;;;;;;;;;;;;;21.03;65.83;100366.88;5057782;28;19924;-59
2022/07/21 13:10:36;;;;;;;;;;;;;;;20.94;66.30;100370.56;5042605;28;20272;-61
2022/07/21 13:13:23;;;;;;;;;;;;;;;20.80;66.29;100370.91;5042581;28;19923;-62
2022/07/21 13:16:08;;;;;;;;;;;;;;;20.71;66.63;100373.66;5042360;28;19924;-61
2022/07/21 13:18:57;;;;;;;;;;;;;;;20.68;66.54;100376.41;5057816;28;19924;-63
2022/07/21 13:21:43;;;;;;;;;;;;;;;20.63;66.90;100376.47;5057361;28;19923;-61
2022/07/21 13:24:28;;;;;;;;;;;;;;;20.59;66.83;100374.81;5042353;28;19974;-61
2022/07/21 13:27:12;;;;;;;;;;;;;;;20.59;66.89;100381.81;5057357;28;20034;-62
2022/07/21 13:30:01;;;;;;;;;;;;;;;20.55;67.37;100388.94;5041982;28;19923;-62
2022/07/21 13:32:51;;;;;;;;;;;;;;;20.56;67.08;100384.50;5041446;28;19962;-62
2022/07/21 13:35:38;;;;;;;;;;;;;;;20.54;67.13;100392.47;5042045;28;20039;-61
2022/07/21 13:38:22;;;;;;;;;;;;;;;20.52;67.58;100391.63;5057210;28;19927;-60
2022/07/21 13:41:09;;;;;;;;;;;;;;;20.47;67.79;100390.84;5057339;28;19963;-60
2022/07/21 13:43:58;;;;;;;;;;;;;;;20.48;67.09;100395.19;5042254;28;19966;-61
2022/07/21 13:46:42;;;;;;;;;;;;;;;20.51;67.49;100393.41;5042288;28;19970;-60
2022/07/21 13:49:29;;;;;;;;;;;;;;;20.47;66.95;100386.44;5042215;28;20358;-60
2022/07/21 13:52:13;;;;;;;;;;;;;;;20.49;67.43;100394.31;5041795;28;20284;-60
2022/07/21 13:55:01;;;;;;;;;;;;;;;20.48;67.31;100392.56;5057137;28;19927;-61
2022/07/21 13:57:45;;;;;;;;;;;;;;;20.46;67.81;100397.88;5041708;28;20383;-60
2022/07/21 14:00:28;;;;;;;;;;;;;;;20.46;66.89;100403.13;5056728;28;20422;-60
2022/07/21 14:03:18;;;;;;;;;;;;;;;20.44;67.61;100401.44;5056259;28;19932;-60
2022/07/21 14:06:03;;;;;;;;;;;;;;;20.43;67.31;100397.94;5041744;28;19923;-61
2022/07/21 14:08:49;;;;;;;;;;;;;;;20.39;67.37;100401.53;5056434;28;20042;-61
2022/07/21 14:11:36;;;;;;;;;;;;;;;20.37;67.22;100405.97;5041130;28;20344;-61
2022/07/21 14:14:26;;;;;;;;;;;;;;;20.41;67.09;100399.72;5056197;28;20022;-62
2022/07/21 14:17:12;;;;;;;;;;;;;;;20.42;67.18;100411.13;5041670;28;19971;-62
2022/07/21 14:19:56;;;;;;;;;;;;;;;20.45;67.21;100409.28;5056374;28;20083;-61
2022/07/21 14:22:43;;;;;;;;;;;;;;;20.47;67.50;100412.78;5056412;28;19924;-61
2022/07/21 14:25:35;;;;;;;;;;;;;;;20.49;67.56;100418.00;5041516;28;20287;-62